createdAt,value
2023-02-06T00:03:57.916Z,362.16053511705684
2023-02-06T00:10:43.322Z,313.561872909699
2023-02-06T00:17:04.497Z,384.9197324414716
2023-02-06T00:23:25.748Z,419.1304347826087
2023-02-06T00:29:45.834Z,520.7157190635452
2023-02-06T00:36:06.695Z,559.571906354515
2023-02-06T00:42:27.775Z,632.1270903010034
2023-02-06T00:48:50.166Z,544.3444816053511
2023-02-06T01:03:45.918Z,513.9866220735786
2023-02-06T01:10:09.409Z,411.02341137123744
2023-02-06T01:21:38.637Z,359.2040133779264
2023-02-06T01:28:00.823Z,325.83277591973246
2023-02-06T01:54:09.901Z,493.6254180602007
2023-02-06T02:00:30.970Z,489.32441471571906
2023-02-06T02:07:12.096Z,464.29765886287623
2023-02-06T02:17:48.473Z,267.7157190635451
2023-02-06T02:24:10.931Z,283.1304347826087
2023-02-06T02:32:58.867Z,295.5418060200669
2023-02-06T02:45:32.431Z,246.2809364548495
2023-02-06T02:51:53.933Z,210.9933110367893
2023-02-06T03:01:00.241Z,190.93979933110367
2023-02-06T03:07:21.952Z,179.44481605351172
2023-02-06T03:13:43.835Z,190.3846153846154
2023-02-06T03:22:22.682Z,211.64882943143812
2023-02-06T03:28:45.193Z,192.25752508361205
2023-02-06T03:40:21.925Z,180.42809364548495
2023-02-06T03:46:45.196Z,166.8896321070234
2023-02-06T03:53:06.368Z,153.33110367892976
2023-02-06T04:05:22.397Z,156.03010033444815
2023-02-06T04:16:14.644Z,197.78929765886286
2023-02-06T04:22:36.895Z,208.73578595317727
2023-02-06T04:29:01.477Z,234.0334448160535
2023-02-06T04:35:23.448Z,260.6220735785953
2023-02-06T04:44:51.144Z,296.72909698996654
2023-02-06T04:54:56.543Z,346.3411371237458
2023-02-06T05:01:18.259Z,450.54515050167225
2023-02-06T05:07:40.856Z,465.75250836120404
2023-02-06T05:23:34.716Z,535.0301003344482
2023-02-06T05:29:56.476Z,518.1672240802676
2023-02-06T05:36:18.853Z,546.9498327759197
2023-02-06T05:44:37.443Z,548.7558528428094
2023-02-06T05:50:59.299Z,480.3578595317726
2023-02-06T05:57:20.982Z,444.46488294314383
2023-02-06T06:12:35.201Z,403.5652173913044
2023-02-06T06:18:58.006Z,452.5886287625418
2023-02-06T06:25:20.928Z,493.3578595317726
2023-02-06T06:32:30.289Z,493.6354515050167
2023-02-06T06:38:53.042Z,509.87290969899664
2023-02-06T06:45:15.499Z,496.5150501672241
2023-02-06T06:53:17.079Z,536.2508361204013
2023-02-06T06:59:41.061Z,549.5150501672241
2023-02-06T07:06:03.462Z,581.4448160535117
2023-02-06T07:16:27.946Z,608.7926421404683
2023-02-06T07:22:52.648Z,635.876254180602
2023-02-06T07:29:21.722Z,656.4648829431438
2023-02-06T07:35:46.490Z,723.561872909699
2023-02-06T07:46:09.713Z,685.6789297658863
2023-02-06T07:53:55.481Z,852.5852842809364
2023-02-06T08:03:12.216Z,850.6454849498327
2023-02-06T08:09:38.014Z,768.6555183946489
2023-02-06T08:16:06.341Z,696.9464882943143
2023-02-06T08:24:50.171Z,636.2140468227425
2023-02-06T08:38:18.030Z,622.5652173913044
2023-02-06T08:49:23.399Z,614.8528428093646
2023-02-06T08:55:49.543Z,563.9331103678929
2023-02-06T09:02:14.285Z,580.2642140468228
2023-02-06T09:11:43.773Z,717.0769230769231
2023-02-06T09:18:08.139Z,622.886287625418
2023-02-06T09:24:32.564Z,618.9130434782609
2023-02-06T09:36:59.231Z,613.5050167224081
2023-02-06T09:47:55.429Z,597.2943143812709
2023-02-06T09:54:19.169Z,774.6454849498327
2023-02-06T10:00:43.609Z,776.1872909698997
2023-02-06T10:07:08.004Z,818.2742474916388
2023-02-06T10:13:33.069Z,627.0836120401337
2023-02-06T10:19:57.152Z,540.7692307692307
2023-02-06T10:26:21.393Z,558.1304347826087
2023-02-06T10:33:00.523Z,757.5250836120401
2023-02-06T10:39:24.907Z,699.314381270903
2023-02-06T10:49:07.142Z,472.0267558528428
2023-02-06T10:55:32.548Z,541.6120401337793
2023-02-06T11:06:40.495Z,477.98996655518397
2023-02-06T11:13:42.209Z,402.95317725752506
2023-02-06T11:20:08.514Z,370.67224080267556
2023-02-06T11:26:32.785Z,584.4882943143813
2023-02-06T11:33:04.296Z,940.7157190635452
2023-02-06T11:44:39.280Z,641.1371237458194
2023-02-06T11:51:03.768Z,735.6387959866221
2023-02-06T11:59:20.364Z,602.4080267558528
2023-02-06T12:11:12.582Z,500.03344481605353
2023-02-06T12:18:22.009Z,461.5953177257525
2023-02-06T12:24:46.474Z,370.23745819397993
2023-02-06T12:31:10.017Z,305.05016722408027
2023-02-06T12:40:16.349Z,355.75585284280936
2023-02-06T13:03:25.284Z,354.628762541806
2023-02-06T13:09:49.713Z,292.7792642140468
2023-02-06T13:16:12.980Z,278.7859531772575
2023-02-06T13:22:37.885Z,329.52508361204013
2023-02-06T13:29:01.430Z,319.371237458194
2023-02-06T13:35:25.179Z,287.2943143812709
2023-02-06T13:41:49.021Z,289.4816053511706
2023-02-06T13:48:11.970Z,278.09698996655516
2023-02-06T13:56:53.391Z,248.1839464882943
2023-02-06T14:05:20.898Z,239.37123745819397
2023-02-06T14:11:44.695Z,219.25083612040135
2023-02-06T14:20:44.000Z,250.2140468227425
2023-02-06T14:27:57.149Z,240.4715719063545
2023-02-06T14:39:04.847Z,237.1839464882943
2023-02-06T14:45:33.781Z,226.63545150501673
2023-02-06T14:52:03.222Z,240.8896321070234
2023-02-06T14:59:29.245Z,225.33110367892976
2023-02-06T15:05:53.928Z,223.19063545150502
2023-02-06T15:12:18.610Z,251.45150501672242
2023-02-06T15:18:44.583Z,258.12040133779266
2023-02-06T15:25:09.806Z,199.33444816053512
2023-02-06T15:31:36.661Z,201.8695652173913
2023-02-06T15:38:01.613Z,182.5284280936455
2023-02-06T15:45:47.822Z,252.75585284280936
2023-02-06T15:56:06.757Z,361.7759197324415
2023-02-06T16:02:32.299Z,322.74247491638795
2023-02-06T16:15:24.248Z,323.68227424749165
2023-02-06T16:21:48.789Z,321.4314381270903
2023-02-06T16:28:11.463Z,388.04682274247494
2023-02-06T16:34:34.167Z,435.98327759197326
2023-02-06T16:40:55.758Z,431.1471571906354
2023-02-06T16:47:17.362Z,461.32441471571906
2023-02-06T16:57:00.341Z,516.38127090301
2023-02-06T17:03:21.562Z,563.9598662207358
2023-02-06T17:09:42.930Z,653.3913043478261
2023-02-06T17:16:04.814Z,616.5384615384615
2023-02-06T17:22:26.814Z,602.1270903010034
2023-02-06T17:28:48.207Z,644.989966555184
2023-02-06T17:46:39.353Z,699.2040133779265
2023-02-06T18:11:49.760Z,952.5284280936455
2023-02-06T18:24:18.198Z,902.6488294314381
2023-02-06T18:35:19.594Z,950.2274247491639
2023-02-06T18:41:41.889Z,1016.571906354515
2023-02-06T18:54:01.402Z,1227.5819397993312
2023-02-06T19:03:11.847Z,1241.76254180602
2023-02-06T19:21:05.302Z,1535.4983277591973
2023-02-06T19:27:29.415Z,1384.7257525083612
2023-02-06T19:33:51.729Z,1218.2709030100334
2023-02-06T19:45:46.222Z,995.9063545150501
2023-02-06T19:52:08.397Z,933.7959866220735
2023-02-06T19:58:31.270Z,986.3545150501673
2023-02-06T20:04:53.044Z,960.4648829431438
2023-02-06T20:20:17.585Z,946.133779264214
2023-02-06T20:32:40.900Z,931.0468227424749
2023-02-06T20:39:02.305Z,933.0367892976589
2023-02-06T20:45:23.992Z,915.010033444816
2023-02-06T20:51:46.857Z,909.4749163879599
2023-02-06T20:58:08.675Z,958.257525083612
2023-02-06T21:07:49.698Z,935.561872909699
2023-02-06T21:14:12.736Z,955.4347826086956
2023-02-06T21:20:34.586Z,958.2374581939799
2023-02-06T21:26:58.601Z,952.3678929765887
2023-02-06T21:33:22.771Z,936.2876254180602
2023-02-06T21:42:25.757Z,933.3946488294314
2023-02-06T21:48:48.229Z,930.180602006689
2023-02-06T21:55:10.174Z,947.8595317725752
2023-02-06T22:01:31.925Z,966.0501672240803
2023-02-06T22:11:36.005Z,1018.9163879598663
2023-02-06T22:21:52.590Z,990.1571906354515
2023-02-06T22:34:56.786Z,973.6889632107024
2023-02-06T22:43:07.916Z,965.7023411371238
2023-02-06T22:52:57.775Z,932.7625418060201
2023-02-06T22:59:20.620Z,891.180602006689
2023-02-06T23:05:44.259Z,903.9665551839465
2023-02-06T23:27:47.774Z,885.8294314381271
2023-02-06T23:34:10.391Z,886.5919732441472
2023-02-06T23:47:19.609Z,932.9264214046823
2023-02-06T23:59:44.393Z,979.4983277591973
